createdAt,value
2022-11-07T09:15:01.868Z,14.20
2022-11-07T09:17:30.668Z,14.20
2022-11-07T09:19:59.543Z,14.40
2022-11-07T09:22:28.494Z,14.40
2022-11-07T09:24:56.738Z,14.40
2022-11-07T09:27:27.784Z,14.40
2022-11-07T09:30:02.481Z,14.30
2022-11-07T09:32:44.579Z,14.30
2022-11-07T09:35:13.552Z,14.20
2022-11-07T09:37:42.567Z,14.20
2022-11-07T09:40:24.798Z,14.10
2022-11-07T09:43:02.086Z,14.10
2022-11-07T09:57:56.892Z,14.20
2022-11-07T10:00:35.642Z,14.30
2022-11-07T10:26:38.131Z,14.10
2022-11-07T10:37:29.770Z,14.40
2022-11-07T11:05:31.174Z,15.10
2022-11-07T11:08:17.773Z,14.80
2022-11-07T11:10:46.397Z,14.70
2022-11-07T11:14:01.925Z,14.70
2022-11-07T11:16:36.449Z,14.70
2022-11-07T11:22:35.068Z,14.60
2022-11-07T11:25:55.973Z,14.60
2022-11-07T11:28:38.421Z,14.60
2022-11-07T11:31:44.742Z,14.60
2022-11-07T11:34:27.106Z,14.60
2022-11-07T11:37:06.420Z,14.60
2022-11-07T11:39:43.988Z,14.50
2022-11-07T11:42:29.426Z,14.50
2022-11-07T11:44:58.214Z,14.50
2022-11-07T11:47:35.247Z,14.50
2022-11-07T11:50:15.590Z,14.50
2022-11-07T11:52:44.037Z,14.50
2022-11-07T11:55:23.309Z,14.60
2022-11-07T11:57:59.570Z,14.60
2022-11-07T12:01:00.492Z,14.60
2022-11-07T12:07:24.633Z,14.60
2022-11-07T12:10:09.221Z,14.60
2022-11-07T12:12:49.741Z,14.60
2022-11-07T12:15:33.935Z,14.60
2022-11-07T12:18:04.467Z,14.60
2022-11-07T12:20:42.956Z,14.60
2022-11-07T12:23:35.684Z,14.60
2022-11-07T12:26:11.986Z,14.60
2022-11-07T12:28:58.863Z,14.60
2022-11-07T12:31:44.558Z,14.70
2022-11-07T12:34:24.285Z,14.70
2022-11-07T12:37:09.062Z,14.70
2022-11-07T12:40:12.585Z,14.80
2022-11-07T12:42:55.954Z,14.80
2022-11-07T12:45:57.475Z,14.80
2022-11-07T12:49:05.297Z,14.80
2022-11-07T12:51:41.638Z,14.80
2022-11-07T12:54:28.557Z,14.80
2022-11-07T12:57:03.128Z,14.80
2022-11-07T12:59:33.978Z,14.80
2022-11-07T13:02:19.759Z,14.80
2022-11-07T13:04:59.553Z,14.80
2022-11-07T13:10:25.393Z,14.80
2022-11-07T13:13:07.386Z,14.90
2022-11-07T13:16:09.021Z,14.80
2022-11-07T13:21:13.369Z,14.80
2022-11-07T13:23:41.664Z,14.80
2022-11-07T13:26:32.517Z,14.80
2022-11-07T13:29:01.253Z,14.80
2022-11-07T13:31:51.029Z,14.80
2022-11-07T13:34:30.454Z,14.80
2022-11-07T13:37:10.215Z,14.80
2022-11-07T13:39:49.360Z,14.80
2022-11-07T13:42:20.665Z,14.80
2022-11-07T13:45:09.045Z,14.80
2022-11-07T13:47:55.973Z,15.50
2022-11-07T13:50:33.835Z,14.80
2022-11-07T13:53:13.765Z,14.80
2022-11-07T13:55:45.331Z,14.90
2022-11-07T13:58:21.659Z,14.90
2022-11-07T14:01:14.208Z,15.00
2022-11-07T14:04:14.217Z,14.90
2022-11-07T14:06:45.855Z,14.90
2022-11-07T14:09:17.503Z,14.90
2022-11-07T14:11:51.614Z,14.80
2022-11-07T14:14:19.889Z,14.90
2022-11-07T14:39:55.972Z,14.70
2022-11-07T14:42:29.643Z,14.60
2022-11-07T14:44:58.005Z,14.60
2022-11-07T14:47:40.440Z,14.60
2022-11-07T14:50:22.435Z,14.60
2022-11-07T14:53:36.793Z,14.60
2022-11-07T14:56:00.481Z,14.60
2022-11-07T14:58:53.187Z,14.60
2022-11-07T15:01:48.981Z,14.50
2022-11-07T15:04:21.272Z,14.50
2022-11-07T15:06:51.205Z,14.50
2022-11-07T15:10:01.171Z,14.50
2022-11-07T15:12:37.545Z,14.50
2022-11-07T15:15:26.305Z,14.40
2022-11-07T15:18:06.580Z,14.40
2022-11-07T15:21:09.322Z,14.40
2022-11-07T15:23:46.542Z,14.40
2022-11-07T15:26:21.533Z,14.40
2022-11-07T15:28:50.448Z,14.40
2022-11-07T15:32:40.312Z,14.40
2022-11-07T16:06:26.889Z,14.20
2022-11-07T16:15:44.308Z,14.20
2022-11-07T16:18:26.156Z,14.20
2022-11-07T16:21:03.700Z,14.20
2022-11-07T17:26:54.338Z,14.60
2022-11-07T17:30:20.078Z,14.60
2022-11-07T17:44:40.184Z,14.50
2022-11-07T17:47:30.621Z,14.60
2022-11-07T17:50:02.209Z,14.60
2022-11-07T17:52:46.330Z,14.60
2022-11-07T17:55:16.843Z,14.70
2022-11-07T17:57:49.078Z,14.70
2022-11-07T18:00:29.931Z,14.70
2022-11-07T18:03:01.317Z,14.90
2022-11-07T18:06:23.089Z,14.80
2022-11-07T18:13:45.326Z,14.80
2022-11-07T18:16:50.235Z,14.80
2022-11-07T18:19:21.478Z,15.00
2022-11-07T18:22:16.943Z,14.70
2022-11-07T18:24:51.642Z,15.00
2022-11-07T18:39:07.762Z,14.80
2022-11-07T19:20:07.919Z,14.60
2022-11-07T19:27:02.744Z,14.60
